Time;durP1;ratioP1;P1;durP2;ratioP2;P2;SDS_P1;SDS_P2;PMS_P1;PMS_P2;Temp;Humidity;BMP_temperature;BMP_pressure;BME280_temperature;BME280_humidity;BME280_pressure;Samples;Min_cycle;Max_cycle;Signal;HPM_P1;HPM_P2
2023/03/03 00:01:20;;;;;;;18.07;13.33;;;;;;;;;;5084582;28;20254;-81
2023/03/03 00:03:49;;;;;;;15.80;11.87;;;;;;;;;;5072212;28;20290;-81
2023/03/03 00:06:16;;;;;;;17.17;13.50;;;;;;;;;;5083927;28;20315;-81
2023/03/03 00:08:44;;;;;;;19.57;12.40;;;;;;;;;;5070937;28;20209;-81
2023/03/03 00:11:12;;;;;;;17.37;13.23;;;;;;;;;;5077194;28;20200;-82
2023/03/03 00:13:45;;;;;;;20.93;13.13;;;;;;;;;;5078036;28;20551;-82
2023/03/03 00:16:21;;;;;;;20.30;13.03;;;;;;;;;;5058945;28;20204;-82
2023/03/03 00:18:50;;;;;;;20.70;14.03;;;;;;;;;;5087267;28;20243;-81
2023/03/03 00:21:29;;;;;;;24.77;12.53;;;;;;;;;;5091116;28;20200;-81
2023/03/03 00:24:05;;;;;;;18.00;11.83;;;;;;;;;;5073334;28;20224;-81
2023/03/03 00:26:36;;;;;;;19.63;12.60;;;;;;;;;;5084127;28;20211;-81
2023/03/03 00:29:23;;;;;;;19.10;13.70;;;;;;;;;;5071674;28;20209;-81
2023/03/03 00:31:50;;;;;;;17.97;14.37;;;;;;;;;;5074403;28;20675;-81
2023/03/03 00:34:24;;;;;;;22.00;14.33;;;;;;;;;;5090898;28;20204;-82
2023/03/03 00:36:53;;;;;;;20.40;14.23;;;;;;;;;;5086812;28;20569;-81
2023/03/03 00:39:27;;;;;;;21.37;12.47;;;;;;;;;;5071196;28;20279;-81
2023/03/03 00:41:54;;;;;;;20.30;12.23;;;;;;;;;;5091149;28;20296;-81
2023/03/03 00:44:39;;;;;;;22.17;13.63;;;;;;;;;;5077861;28;20655;-83
2023/03/03 00:47:19;;;;;;;20.60;13.87;;;;;;;;;;5080023;28;20288;-81
2023/03/03 00:49:46;;;;;;;17.03;12.13;;;;;;;;;;5086439;28;20209;-81
2023/03/03 00:52:14;;;;;;;18.13;12.70;;;;;;;;;;5071064;28;20204;-82
2023/03/03 00:54:42;;;;;;;16.97;12.77;;;;;;;;;;5070973;28;20745;-81
2023/03/03 00:57:11;;;;;;;16.93;12.10;;;;;;;;;;5070699;28;20223;-82
2023/03/03 00:59:38;;;;;;;15.27;12.40;;;;;;;;;;5084145;28;20244;-82
2023/03/03 01:02:05;;;;;;;19.60;13.20;;;;;;;;;;5071055;28;20205;-81
2023/03/03 01:04:32;;;;;;;18.47;12.33;;;;;;;;;;5090799;28;20322;-81
2023/03/03 01:06:58;;;;;;;15.17;12.27;;;;;;;;;;5090781;28;20629;-82
2023/03/03 01:09:25;;;;;;;18.07;12.73;;;;;;;;;;5070883;28;20228;-81
2023/03/03 01:11:53;;;;;;;16.50;12.40;;;;;;;;;;5070830;28;20209;-81
2023/03/03 01:14:20;;;;;;;15.87;11.53;;;;;;;;;;5076962;28;20585;-81
2023/03/03 01:16:47;;;;;;;16.73;11.47;;;;;;;;;;5077994;28;20569;-82
2023/03/03 01:19:14;;;;;;;17.07;11.83;;;;;;;;;;5084299;28;20568;-82
2023/03/03 01:21:40;;;;;;;19.37;11.43;;;;;;;;;;5071359;28;20209;-82
2023/03/03 01:24:09;;;;;;;17.17;12.47;;;;;;;;;;5081343;28;20220;-82
2023/03/03 01:26:36;;;;;;;16.43;11.90;;;;;;;;;;5081437;28;20204;-82
2023/03/03 01:29:04;;;;;;;16.87;11.60;;;;;;;;;;5086952;28;20208;-81
2023/03/03 01:31:31;;;;;;;15.47;12.00;;;;;;;;;;5087522;28;20224;-81
2023/03/03 01:33:58;;;;;;;20.60;12.60;;;;;;;;;;5082726;28;20748;-81
2023/03/03 01:36:25;;;;;;;19.03;12.87;;;;;;;;;;5092375;28;20724;-82
2023/03/03 01:38:52;;;;;;;18.00;13.83;;;;;;;;;;5082444;28;20257;-81
2023/03/03 01:41:18;;;;;;;22.80;13.20;;;;;;;;;;5078506;28;20258;-82
2023/03/03 01:43:49;;;;;;;17.13;12.33;;;;;;;;;;5083118;28;20224;-81
2023/03/03 01:46:46;;;;;;;15.10;12.20;;;;;;;;;;5091273;28;20266;-82
2023/03/03 01:49:16;;;;;;;18.50;12.80;;;;;;;;;;5087826;28;20212;-82
2023/03/03 01:51:47;;;;;;;16.47;11.97;;;;;;;;;;5081591;28;20643;-82
2023/03/03 01:54:18;;;;;;;18.20;12.87;;;;;;;;;;5093608;28;20674;-82
2023/03/03 01:56:45;;;;;;;18.57;11.60;;;;;;;;;;5094177;28;20219;-82
2023/03/03 01:59:14;;;;;;;18.57;13.33;;;;;;;;;;5077799;28;20608;-83
2023/03/03 02:01:42;;;;;;;17.67;13.97;;;;;;;;;;5073622;28;20201;-81
2023/03/03 02:04:09;;;;;;;17.97;13.43;;;;;;;;;;5087020;28;20229;-81
2023/03/03 02:06:39;;;;;;;18.30;14.17;;;;;;;;;;5073487;28;20228;-81
2023/03/03 02:09:09;;;;;;;19.07;12.47;;;;;;;;;;5073341;28;20216;-81
2023/03/03 02:11:38;;;;;;;19.57;13.77;;;;;;;;;;5085057;28;20204;-81
2023/03/03 02:14:05;;;;;;;19.10;13.63;;;;;;;;;;5076017;28;20208;-81
2023/03/03 02:16:32;;;;;;;26.20;14.43;;;;;;;;;;5073765;28;20573;-81
2023/03/03 02:19:00;;;;;;;20.90;13.67;;;;;;;;;;5090923;28;20687;-81
2023/03/03 02:21:27;;;;;;;16.77;12.67;;;;;;;;;;5093375;28;20204;-82
2023/03/03 02:24:00;;;;;;;22.47;14.47;;;;;;;;;;5075430;28;20239;-81
2023/03/03 02:26:30;;;;;;;21.57;14.63;;;;;;;;;;5085523;28;20211;-82
2023/03/03 02:28:57;;;;;;;20.73;14.67;;;;;;;;;;5073540;28;20201;-82
2023/03/03 02:31:26;;;;;;;18.57;14.53;;;;;;;;;;5086817;28;20212;-81
2023/03/03 02:33:54;;;;;;;19.03;14.33;;;;;;;;;;5066160;28;20265;-81
2023/03/03 02:36:22;;;;;;;24.60;14.30;;;;;;;;;;5079209;28;20201;-82
2023/03/03 02:38:51;;;;;;;14.93;11.13;;;;;;;;;;5080981;28;20614;-80
2023/03/03 02:41:29;;;;;;;18.57;11.47;;;;;;;;;;5091290;28;20204;-82
2023/03/03 02:44:00;;;;;;;19.33;13.23;;;;;;;;;;5082280;28;20232;-82
2023/03/03 02:46:27;;;;;;;15.93;11.73;;;;;;;;;;5079656;28;20641;-81
2023/03/03 02:48:54;;;;;;;17.90;14.33;;;;;;;;;;5092993;28;20216;-82
2023/03/03 02:51:20;;;;;;;18.53;13.97;;;;;;;;;;5078925;28;20598;-81
2023/03/03 02:53:47;;;;;;;19.83;13.97;;;;;;;;;;5082641;28;20258;-82
2023/03/03 02:56:14;;;;;;;20.67;13.90;;;;;;;;;;5076119;28;20227;-82
2023/03/03 02:58:42;;;;;;;19.20;13.20;;;;;;;;;;5092737;28;20725;-81
2023/03/03 03:01:09;;;;;;;17.80;13.03;;;;;;;;;;5075171;28;20567;-81
2023/03/03 03:03:36;;;;;;;19.13;14.40;;;;;;;;;;5072279;28;20616;-82
2023/03/03 03:06:03;;;;;;;19.53;13.60;;;;;;;;;;5072154;28;20233;-81
2023/03/03 03:08:30;;;;;;;21.77;13.50;;;;;;;;;;5072418;28;20200;-81
2023/03/03 03:10:57;;;;;;;19.33;13.77;;;;;;;;;;5077335;28;20212;-81
2023/03/03 03:13:24;;;;;;;19.50;12.70;;;;;;;;;;5081046;28;20209;-81
2023/03/03 03:15:54;;;;;;;20.83;12.57;;;;;;;;;;5085907;28;20281;-81
2023/03/03 03:18:21;;;;;;;20.93;13.50;;;;;;;;;;5072059;28;20680;-81
2023/03/03 03:20:48;;;;;;;20.13;13.17;;;;;;;;;;5078179;28;21308;-82
2023/03/03 03:23:16;;;;;;;19.47;12.33;;;;;;;;;;5079468;28;20688;-81
2023/03/03 03:25:45;;;;;;;17.83;11.57;;;;;;;;;;5085648;28;20224;-81
2023/03/03 03:28:12;;;;;;;17.47;13.73;;;;;;;;;;5072326;28;20288;-81
2023/03/03 03:30:39;;;;;;;20.47;14.00;;;;;;;;;;5079088;28;20264;-81
2023/03/03 03:33:09;;;;;;;23.40;14.57;;;;;;;;;;5078912;28;20278;-81
2023/03/03 03:35:36;;;;;;;17.30;12.57;;;;;;;;;;5091930;28;20204;-81
2023/03/03 03:38:03;;;;;;;17.47;13.93;;;;;;;;;;5077188;28;20209;-81
2023/03/03 03:40:30;;;;;;;17.63;14.03;;;;;;;;;;5080287;28;20219;-81
2023/03/03 03:42:57;;;;;;;19.03;14.00;;;;;;;;;;5077943;28;20208;-81
2023/03/03 03:45:24;;;;;;;17.93;13.70;;;;;;;;;;5083120;28;20249;-80
2023/03/03 03:47:50;;;;;;;23.30;17.50;;;;;;;;;;5085150;28;20205;-81
2023/03/03 03:50:19;;;;;;;29.03;18.47;;;;;;;;;;5071845;28;20205;-86
2023/03/03 03:52:45;;;;;;;20.57;15.83;;;;;;;;;;5087298;28;20216;-80
2023/03/03 03:55:13;;;;;;;23.30;15.23;;;;;;;;;;5082715;28;20209;-80
2023/03/03 03:57:40;;;;;;;16.30;13.07;;;;;;;;;;5074512;28;20208;-82
2023/03/03 04:00:08;;;;;;;17.63;13.40;;;;;;;;;;5082130;28;20819;-80
2023/03/03 04:02:35;;;;;;;18.57;13.63;;;;;;;;;;5088443;28;20208;-81
2023/03/03 04:05:02;;;;;;;19.90;16.37;;;;;;;;;;5081417;28;20665;-81
2023/03/03 04:07:30;;;;;;;23.07;17.07;;;;;;;;;;5085068;28;20757;-81
2023/03/03 04:09:57;;;;;;;20.07;15.37;;;;;;;;;;5070367;28;20687;-81
2023/03/03 04:12:24;;;;;;;16.80;12.63;;;;;;;;;;5072619;28;20273;-81
2023/03/03 04:14:51;;;;;;;14.60;11.70;;;;;;;;;;5070997;28;20212;-84
2023/03/03 04:17:18;;;;;;;16.30;11.20;;;;;;;;;;5071657;28;20197;-81
2023/03/03 04:19:44;;;;;;;15.80;11.57;;;;;;;;;;5071228;28;20213;-81
2023/03/03 04:22:12;;;;;;;17.20;11.43;;;;;;;;;;5075211;28;20640;-82
2023/03/03 04:24:40;;;;;;;11.37;9.83;;;;;;;;;;5091537;28;20318;-82
2023/03/03 04:27:08;;;;;;;11.20;9.70;;;;;;;;;;5086370;28;20212;-81
2023/03/03 04:29:35;;;;;;;12.57;9.17;;;;;;;;;;5082789;28;20212;-81
2023/03/03 04:32:01;;;;;;;13.53;8.97;;;;;;;;;;5072284;28;20683;-82
2023/03/03 04:34:28;;;;;;;12.43;9.27;;;;;;;;;;5083223;28;20208;-82
2023/03/03 04:36:55;;;;;;;12.00;8.97;;;;;;;;;;5085462;28;20248;-82
2023/03/03 04:39:22;;;;;;;12.93;9.40;;;;;;;;;;5070977;28;20737;-83
2023/03/03 04:41:50;;;;;;;14.97;9.43;;;;;;;;;;5084333;28;20629;-82
2023/03/03 04:44:17;;;;;;;13.30;9.10;;;;;;;;;;5071295;28;20204;-82
2023/03/03 04:46:43;;;;;;;14.03;9.47;;;;;;;;;;5084339;28;20201;-82
2023/03/03 04:49:10;;;;;;;13.47;10.73;;;;;;;;;;5084141;28;20303;-83
2023/03/03 04:51:37;;;;;;;10.80;9.53;;;;;;;;;;5070921;28;20201;-82
2023/03/03 04:54:04;;;;;;;16.47;11.50;;;;;;;;;;5057597;28;20209;-81
2023/03/03 04:56:31;;;;;;;11.73;10.17;;;;;;;;;;5091430;28;20208;-82
2023/03/03 04:58:59;;;;;;;13.70;9.80;;;;;;;;;;5081560;28;20675;-82
2023/03/03 05:01:26;;;;;;;14.90;10.03;;;;;;;;;;5094866;28;20204;-82
2023/03/03 05:03:53;;;;;;;16.67;10.23;;;;;;;;;;5081174;28;20200;-82
2023/03/03 05:06:20;;;;;;;15.50;11.90;;;;;;;;;;5074834;28;20302;-81
2023/03/03 05:08:47;;;;;;;13.83;10.50;;;;;;;;;;5074968;28;20201;-82
2023/03/03 05:11:13;;;;;;;15.83;11.47;;;;;;;;;;5075746;28;20201;-81
2023/03/03 05:13:40;;;;;;;13.10;11.00;;;;;;;;;;5082313;28;20283;-81
2023/03/03 05:16:09;;;;;;;13.90;10.43;;;;;;;;;;5075504;28;20209;-81
2023/03/03 05:18:36;;;;;;;15.57;10.27;;;;;;;;;;5093889;28;20204;-81
2023/03/03 05:21:03;;;;;;;18.53;11.73;;;;;;;;;;5081978;28;20207;-81
2023/03/03 05:23:30;;;;;;;21.00;12.90;;;;;;;;;;5087924;28;20274;-81
2023/03/03 05:25:57;;;;;;;13.47;9.83;;;;;;;;;;5074228;28;20319;-83
2023/03/03 05:28:23;;;;;;;13.13;9.13;;;;;;;;;;5074037;28;20255;-88
2023/03/03 05:30:50;;;;;;;16.77;11.00;;;;;;;;;;5074365;28;20251;-81
2023/03/03 05:33:19;;;;;;;14.83;11.10;;;;;;;;;;5074007;28;20201;-81
2023/03/03 05:35:45;;;;;;;19.00;13.33;;;;;;;;;;5066805;28;20235;-81
2023/03/03 05:38:12;;;;;;;15.93;11.67;;;;;;;;;;5067643;28;20197;-81
2023/03/03 05:40:39;;;;;;;10.17;8.53;;;;;;;;;;5081274;28;20606;-81
2023/03/03 05:43:06;;;;;;;10.90;8.83;;;;;;;;;;5077784;28;20197;-82
2023/03/03 05:45:34;;;;;;;14.90;9.03;;;;;;;;;;5080274;28;20222;-81
2023/03/03 05:48:00;;;;;;;10.97;8.07;;;;;;;;;;5090438;28;20257;-82
2023/03/03 05:50:29;;;;;;;12.20;8.73;;;;;;;;;;5073836;28;20209;-82
2023/03/03 05:52:55;;;;;;;14.07;9.07;;;;;;;;;;5073984;28;20370;-84
2023/03/03 05:55:22;;;;;;;17.53;13.00;;;;;;;;;;5060461;28;20266;-83
2023/03/03 05:57:49;;;;;;;21.83;12.70;;;;;;;;;;5087432;28;20265;-83
2023/03/03 06:00:17;;;;;;;17.93;12.13;;;;;;;;;;5073967;28;20274;-82
2023/03/03 06:02:44;;;;;;;17.67;12.60;;;;;;;;;;5073808;28;20209;-82
2023/03/03 06:05:11;;;;;;;15.87;11.97;;;;;;;;;;5073632;28;20294;-82
2023/03/03 06:07:41;;;;;;;19.83;13.90;;;;;;;;;;5087694;28;20319;-82
2023/03/03 06:10:08;;;;;;;20.00;14.07;;;;;;;;;;5093304;28;20200;-80
2023/03/03 06:12:36;;;;;;;17.33;13.90;;;;;;;;;;5071765;28;20808;-81
2023/03/03 06:15:04;;;;;;;13.03;10.03;;;;;;;;;;5073202;28;20201;-82
2023/03/03 06:17:31;;;;;;;12.90;8.63;;;;;;;;;;5073088;28;20209;-82
2023/03/03 06:19:58;;;;;;;12.03;7.83;;;;;;;;;;5085820;28;20215;-82
2023/03/03 06:22:24;;;;;;;13.70;8.27;;;;;;;;;;5074493;28;20278;-81
2023/03/03 06:24:52;;;;;;;11.63;9.33;;;;;;;;;;5085268;28;20273;-82
2023/03/03 06:27:19;;;;;;;9.90;8.37;;;;;;;;;;5074145;28;20216;-81
2023/03/03 06:29:46;;;;;;;8.43;7.20;;;;;;;;;;5073050;28;20258;-81
2023/03/03 06:32:13;;;;;;;11.73;8.43;;;;;;;;;;5086054;28;20215;-82
2023/03/03 06:34:40;;;;;;;9.53;8.53;;;;;;;;;;5072933;28;20201;-81
2023/03/03 06:37:07;;;;;;;11.10;8.43;;;;;;;;;;5092802;28;20200;-82
2023/03/03 06:39:36;;;;;;;11.73;8.50;;;;;;;;;;5079978;28;20209;-82
2023/03/03 06:42:05;;;;;;;12.50;10.80;;;;;;;;;;5052849;28;20202;-82
2023/03/03 06:44:34;;;;;;;26.33;20.00;;;;;;;;;;5067009;28;20656;-82
2023/03/03 06:47:01;;;;;;;65.63;37.30;;;;;;;;;;5080726;28;20781;-82
2023/03/03 06:49:28;;;;;;;24.80;20.40;;;;;;;;;;5091821;28;20261;-82
2023/03/03 06:51:55;;;;;;;74.07;65.03;;;;;;;;;;5081294;28;20286;-82
2023/03/03 06:54:28;;;;;;;43.43;32.33;;;;;;;;;;5092626;28;20210;-82
2023/03/03 06:56:58;;;;;;;36.10;26.43;;;;;;;;;;5092974;28;20277;-82
2023/03/03 06:59:27;;;;;;;47.37;31.87;;;;;;;;;;5076192;28;20205;-81
2023/03/03 07:01:54;;;;;;;19.17;15.00;;;;;;;;;;5072422;28;20647;-81
2023/03/03 07:04:27;;;;;;;23.07;15.40;;;;;;;;;;5076497;28;20280;-81
2023/03/03 07:06:55;;;;;;;22.60;15.47;;;;;;;;;;5091410;28;20243;-82
2023/03/03 07:09:23;;;;;;;17.67;15.50;;;;;;;;;;5078586;28;20667;-82
2023/03/03 07:11:51;;;;;;;10.60;9.10;;;;;;;;;;5080309;28;20213;-82
2023/03/03 07:14:19;;;;;;;14.90;12.67;;;;;;;;;;5072144;28;20656;-82
2023/03/03 07:16:51;;;;;;;19.90;12.57;;;;;;;;;;5084770;28;20827;-82
2023/03/03 07:19:20;;;;;;;14.10;12.00;;;;;;;;;;5079049;28;20303;-76
2023/03/03 07:21:47;;;;;;;14.07;10.23;;;;;;;;;;5078261;28;20193;-77
2023/03/03 07:24:26;;;;;;;10.57;8.27;;;;;;;;;;5087416;28;20599;-77
2023/03/03 07:26:53;;;;;;;11.27;10.10;;;;;;;;;;5071549;28;20604;-77
2023/03/03 07:29:25;;;;;;;22.67;15.33;;;;;;;;;;5071809;28;20684;-78
2023/03/03 07:31:53;;;;;;;21.27;16.93;;;;;;;;;;5085985;28;20211;-78
2023/03/03 07:34:21;;;;;;;23.67;16.43;;;;;;;;;;5083750;28;20691;-78
2023/03/03 07:36:50;;;;;;;13.50;9.90;;;;;;;;;;5085335;28;20269;-78
2023/03/03 07:39:29;;;;;;;11.63;9.23;;;;;;;;;;5071814;28;20230;-80
2023/03/03 07:42:00;;;;;;;37.90;28.10;;;;;;;;;;5088976;28;20261;-84
2023/03/03 07:44:31;;;;;;;46.07;31.33;;;;;;;;;;5066789;28;20303;-82
2023/03/03 07:47:00;;;;;;;72.83;39.30;;;;;;;;;;5078158;28;20228;-81
2023/03/03 07:49:33;;;;;;;34.43;20.67;;;;;;;;;;5092119;28;20213;-80
2023/03/03 07:52:00;;;;;;;32.07;24.80;;;;;;;;;;5078851;28;20203;-80
2023/03/03 07:54:34;;;;;;;26.47;20.20;;;;;;;;;;5081708;28;20634;-81
2023/03/03 07:57:06;;;;;;;20.17;14.97;;;;;;;;;;5071678;28;20204;-80
2023/03/03 07:59:35;;;;;;;17.93;15.97;;;;;;;;;;5071476;28;20243;-81
2023/03/03 08:02:07;;;;;;;28.40;25.20;;;;;;;;;;5077557;28;20204;-86
2023/03/03 08:04:41;;;;;;;36.50;25.77;;;;;;;;;;5077895;28;20201;-81
2023/03/03 08:07:12;;;;;;;24.80;21.67;;;;;;;;;;5051570;28;20295;-81
2023/03/03 08:09:43;;;;;;;11.60;9.47;;;;;;;;;;5080557;28;20616;-82
2023/03/03 08:12:32;;;;;;;17.27;10.07;;;;;;;;;;5084874;28;20667;-82
2023/03/03 08:15:15;;;;;;;14.77;10.10;;;;;;;;;;5064725;28;20292;-81
2023/03/03 08:17:44;;;;;;;12.80;7.80;;;;;;;;;;5064834;28;20676;-81
2023/03/03 08:20:44;;;;;;;12.93;9.17;;;;;;;;;;5077319;28;20215;-81
2023/03/03 08:23:12;;;;;;;12.53;9.47;;;;;;;;;;5036787;28;20197;-81
2023/03/03 08:25:39;;;;;;;9.60;8.60;;;;;;;;;;5089497;28;20204;-81
2023/03/03 08:28:06;;;;;;;13.53;9.07;;;;;;;;;;5079196;28;20563;-81
2023/03/03 08:30:33;;;;;;;16.03;11.10;;;;;;;;;;5077204;28;20269;-80
2023/03/03 08:33:01;;;;;;;11.40;9.13;;;;;;;;;;5078901;28;20205;-81
2023/03/03 08:35:27;;;;;;;9.43;8.47;;;;;;;;;;5071139;28;20684;-81
2023/03/03 08:37:54;;;;;;;11.30;8.37;;;;;;;;;;5071213;28;20784;-81
2023/03/03 08:40:21;;;;;;;23.50;16.53;;;;;;;;;;5077180;28;20227;-82
2023/03/03 08:42:48;;;;;;;18.10;11.73;;;;;;;;;;5091846;28;20211;-81
2023/03/03 08:45:16;;;;;;;14.03;9.40;;;;;;;;;;5071547;28;20208;-81
2023/03/03 08:47:43;;;;;;;14.23;10.13;;;;;;;;;;5084297;28;20232;-80
2023/03/03 08:50:12;;;;;;;14.47;10.67;;;;;;;;;;5091494;28;20215;-81
2023/03/03 08:52:39;;;;;;;14.27;10.40;;;;;;;;;;5077907;28;20209;-82
2023/03/03 08:55:06;;;;;;;14.83;10.73;;;;;;;;;;5091815;28;20261;-82
2023/03/03 08:57:33;;;;;;;15.53;10.10;;;;;;;;;;5090802;28;20211;-82
2023/03/03 08:59:59;;;;;;;16.43;11.43;;;;;;;;;;5078481;28;20208;-81
2023/03/03 09:02:27;;;;;;;15.77;11.47;;;;;;;;;;5091328;28;20214;-81
2023/03/03 09:04:53;;;;;;;12.53;10.77;;;;;;;;;;5082362;28;20208;-81
2023/03/03 09:07:22;;;;;;;14.10;10.43;;;;;;;;;;5083104;28;20545;-81
2023/03/03 09:09:49;;;;;;;14.17;10.97;;;;;;;;;;5078320;28;20212;-81
2023/03/03 09:12:17;;;;;;;14.80;10.40;;;;;;;;;;5075488;28;20205;-81
2023/03/03 09:14:44;;;;;;;13.30;9.97;;;;;;;;;;5070523;28;20197;-78
2023/03/03 09:17:25;;;;;;;12.03;10.73;;;;;;;;;;5089166;28;20216;-78
2023/03/03 09:19:52;;;;;;;14.87;11.47;;;;;;;;;;5090425;28;20811;-78
2023/03/03 09:22:22;;;;;;;17.20;11.47;;;;;;;;;;5070571;28;20746;-77
2023/03/03 09:24:52;;;;;;;19.10;12.50;;;;;;;;;;5083888;28;20272;-77
2023/03/03 09:27:27;;;;;;;14.37;11.77;;;;;;;;;;5070709;28;20306;-77
2023/03/03 09:29:54;;;;;;;18.23;12.33;;;;;;;;;;5070201;28;20676;-77
2023/03/03 09:32:35;;;;;;;19.17;11.87;;;;;;;;;;5070352;28;20193;-77
2023/03/03 09:35:34;;;;;;;15.33;11.67;;;;;;;;;;5075049;28;20215;-77
2023/03/03 09:38:10;;;;;;;19.80;13.17;;;;;;;;;;5077140;28;20287;-76
2023/03/03 09:40:49;;;;;;;20.13;13.87;;;;;;;;;;5090535;28;20683;-78
2023/03/03 09:43:22;;;;;;;19.53;12.87;;;;;;;;;;5090272;28;20200;-77
2023/03/03 09:45:59;;;;;;;18.93;13.13;;;;;;;;;;5080299;28;20243;-76
2023/03/03 09:48:44;;;;;;;18.60;12.50;;;;;;;;;;5089321;28;20254;-77
2023/03/03 09:51:31;;;;;;;20.07;13.03;;;;;;;;;;5087679;28;20215;-77
2023/03/03 09:54:12;;;;;;;24.90;14.67;;;;;;;;;;5084640;28;20220;-80
2023/03/03 09:56:43;;;;;;;18.53;11.70;;;;;;;;;;5066268;28;20613;-78
2023/03/03 09:59:20;;;;;;;16.53;11.63;;;;;;;;;;5074611;28;20258;-78
2023/03/03 10:01:54;;;;;;;28.13;18.27;;;;;;;;;;5093873;28;20207;-78
2023/03/03 10:04:31;;;;;;;25.30;16.70;;;;;;;;;;5075673;28;20197;-77
2023/03/03 10:07:07;;;;;;;17.13;12.50;;;;;;;;;;5073550;28;20293;-77
2023/03/03 10:10:03;;;;;;;14.63;11.10;;;;;;;;;;5061657;28;20265;-80
2023/03/03 10:12:36;;;;;;;13.67;10.27;;;;;;;;;;5078059;28;20571;-79
2023/03/03 10:15:29;;;;;;;18.53;11.13;;;;;;;;;;5089757;28;20239;-80
2023/03/03 10:17:59;;;;;;;12.70;10.10;;;;;;;;;;5074575;28;20197;-81
2023/03/03 10:20:37;;;;;;;15.13;11.20;;;;;;;;;;5074108;28;20209;-82
2023/03/03 10:23:11;;;;;;;15.47;11.87;;;;;;;;;;5073778;28;20200;-80
2023/03/03 10:25:41;;;;;;;16.97;13.93;;;;;;;;;;5090803;28;20226;-88
2023/03/03 10:28:28;;;;;;;12.60;9.73;;;;;;;;;;5093864;28;20320;-83
2023/03/03 10:31:03;;;;;;;15.57;9.70;;;;;;;;;;5072868;28;20211;-80
2023/03/03 10:33:33;;;;;;;11.20;7.80;;;;;;;;;;5086621;28;20239;-80
2023/03/03 10:36:22;;;;;;;12.10;9.73;;;;;;;;;;5081999;28;20246;-85
2023/03/03 10:38:58;;;;;;;13.93;8.37;;;;;;;;;;5060369;28;20216;-80
2023/03/03 10:41:56;;;;;;;11.60;7.20;;;;;;;;;;5091285;28;20212;-80
2023/03/03 10:44:44;;;;;;;14.37;10.13;;;;;;;;;;5077191;28;20292;-80
2023/03/03 10:47:40;;;;;;;9.70;7.90;;;;;;;;;;5072878;28;20290;-81
2023/03/03 10:50:17;;;;;;;10.50;8.47;;;;;;;;;;5059805;28;20201;-80
2023/03/03 10:52:47;;;;;;;10.80;8.77;;;;;;;;;;5086165;28;20204;-80
2023/03/03 10:55:21;;;;;;;12.07;8.43;;;;;;;;;;5083468;28;20211;-80
2023/03/03 10:58:00;;;;;;;11.77;9.77;;;;;;;;;;5086398;28;20591;-80
2023/03/03 11:00:31;;;;;;;13.37;8.87;;;;;;;;;;5085455;28;20639;-80
2023/03/03 11:03:37;;;;;;;12.40;8.67;;;;;;;;;;5071177;28;20228;-80
2023/03/03 11:06:07;;;;;;;18.67;12.43;;;;;;;;;;5049008;28;20245;-80
2023/03/03 11:08:39;;;;;;;19.13;13.10;;;;;;;;;;5082565;28;20286;-80
2023/03/03 11:11:11;;;;;;;9.07;7.80;;;;;;;;;;5077901;28;20205;-81
2023/03/03 11:13:45;;;;;;;9.60;6.97;;;;;;;;;;5092437;28;20200;-80
2023/03/03 11:16:26;;;;;;;12.17;7.47;;;;;;;;;;5092109;28;20678;-81
2023/03/03 11:19:02;;;;;;;6.90;6.13;;;;;;;;;;5078849;28;20625;-80
2023/03/03 11:21:33;;;;;;;10.13;7.83;;;;;;;;;;5092111;28;20208;-80
2023/03/03 11:24:14;;;;;;;10.07;8.97;;;;;;;;;;5086772;28;20205;-80
2023/03/03 11:26:59;;;;;;;10.13;8.17;;;;;;;;;;5072593;28;20255;-81
2023/03/03 11:29:48;;;;;;;9.63;7.77;;;;;;;;;;5082094;28;20258;-80
2023/03/03 11:32:22;;;;;;;11.90;8.10;;;;;;;;;;5070691;28;20204;-81
2023/03/03 11:34:58;;;;;;;10.70;7.70;;;;;;;;;;5078212;28;20266;-82
2023/03/03 11:37:27;;;;;;;25.23;14.90;;;;;;;;;;5083187;28;20208;-80
2023/03/03 11:39:58;;;;;;;25.93;17.23;;;;;;;;;;5084842;28;20255;-81
2023/03/03 11:42:28;;;;;;;40.17;22.47;;;;;;;;;;5071797;28;20363;-80
2023/03/03 11:45:00;;;;;;;47.23;27.93;;;;;;;;;;5071980;28;20585;-80
2023/03/03 11:47:33;;;;;;;13.63;8.83;;;;;;;;;;5071279;28;20239;-80
2023/03/03 11:50:02;;;;;;;12.80;8.03;;;;;;;;;;5091065;28;20200;-80
2023/03/03 11:52:37;;;;;;;20.00;15.97;;;;;;;;;;5081053;28;20208;-77
2023/03/03 11:55:09;;;;;;;33.30;25.57;;;;;;;;;;5079726;28;20204;-77
2023/03/03 11:57:40;;;;;;;18.97;16.70;;;;;;;;;;5079037;28;20197;-77
2023/03/03 12:00:23;;;;;;;21.30;16.73;;;;;;;;;;5090720;28;20211;-76
2023/03/03 12:03:09;;;;;;;27.77;22.90;;;;;;;;;;5080451;28;20208;-77
2023/03/03 12:05:46;;;;;;;28.70;19.87;;;;;;;;;;5071707;28;20635;-76
2023/03/03 12:08:23;;;;;;;15.03;11.90;;;;;;;;;;5084377;28;20779;-78
2023/03/03 12:10:55;;;;;;;38.13;31.33;;;;;;;;;;5086293;28;20211;-78
2023/03/03 12:13:26;;;;;;;33.57;26.47;;;;;;;;;;5080386;28;20201;-79
2023/03/03 12:15:56;;;;;;;24.17;21.67;;;;;;;;;;5089823;28;20647;-79
2023/03/03 12:18:41;;;;;;;23.47;17.40;;;;;;;;;;5078292;28;20242;-79
2023/03/03 12:21:19;;;;;;;18.43;15.03;;;;;;;;;;5068430;28;20200;-79
2023/03/03 12:24:04;;;;;;;21.27;15.27;;;;;;;;;;5074469;28;20205;-79
2023/03/03 12:26:36;;;;;;;10.00;8.23;;;;;;;;;;5083826;28;20200;-79
2023/03/03 12:29:08;;;;;;;10.87;8.87;;;;;;;;;;5057798;28;20205;-78
2023/03/03 12:31:45;;;;;;;11.67;9.97;;;;;;;;;;5085425;28;20212;-78
2023/03/03 12:34:15;;;;;;;8.27;7.03;;;;;;;;;;5082384;28;20205;-79
2023/03/03 12:37:13;;;;;;;7.93;6.77;;;;;;;;;;5071025;28;20304;-84
2023/03/03 12:39:50;;;;;;;8.67;5.70;;;;;;;;;;5070622;28;20205;-82
2023/03/03 12:42:24;;;;;;;7.57;6.87;;;;;;;;;;5079585;28;21080;-82
2023/03/03 12:44:58;;;;;;;9.60;6.73;;;;;;;;;;5091331;28;20565;-82
2023/03/03 12:47:29;;;;;;;9.20;5.23;;;;;;;;;;5091220;28;20322;-81
2023/03/03 12:50:06;;;;;;;9.47;6.33;;;;;;;;;;5065388;28;20208;-81
2023/03/03 12:52:40;;;;;;;9.50;5.70;;;;;;;;;;5072321;28;20197;-81
2023/03/03 12:55:11;;;;;;;5.90;5.30;;;;;;;;;;5090890;28;20211;-81
2023/03/03 12:57:43;;;;;;;5.20;4.70;;;;;;;;;;5073403;28;20219;-82
2023/03/03 13:00:23;;;;;;;7.87;5.27;;;;;;;;;;5082588;28;20389;-81
2023/03/03 13:02:58;;;;;;;5.23;4.60;;;;;;;;;;5070608;28;20710;-81
2023/03/03 13:05:29;;;;;;;8.67;5.20;;;;;;;;;;5070627;28;20217;-81
2023/03/03 13:08:07;;;;;;;5.60;5.00;;;;;;;;;;5079616;28;20228;-81
2023/03/03 13:10:38;;;;;;;5.40;4.80;;;;;;;;;;5075047;28;20905;-81
2023/03/03 13:13:10;;;;;;;6.80;5.23;;;;;;;;;;5090285;28;20204;-80
2023/03/03 13:15:43;;;;;;;5.57;5.03;;;;;;;;;;5087989;28;20208;-80
2023/03/03 13:18:28;;;;;;;10.73;9.63;;;;;;;;;;5072301;28;20597;-80
2023/03/03 13:21:00;;;;;;;6.23;5.63;;;;;;;;;;5074025;28;20215;-81
2023/03/03 13:23:37;;;;;;;6.53;5.07;;;;;;;;;;5074403;28;20289;-81
2023/03/03 13:26:09;;;;;;;5.63;5.00;;;;;;;;;;5074198;28;20258;-81
2023/03/03 13:28:38;;;;;;;5.43;4.83;;;;;;;;;;5090258;28;20618;-81
2023/03/03 13:31:11;;;;;;;6.47;5.20;;;;;;;;;;5094392;28;20600;-81
2023/03/03 13:33:47;;;;;;;8.60;6.80;;;;;;;;;;5089890;28;20219;-81
2023/03/03 13:36:15;;;;;;;6.83;5.93;;;;;;;;;;5074324;28;20251;-83
2023/03/03 13:38:43;;;;;;;7.60;6.43;;;;;;;;;;5087619;28;20197;-81
2023/03/03 13:41:17;;;;;;;7.67;5.23;;;;;;;;;;5087035;28;20686;-81
2023/03/03 13:43:48;;;;;;;5.17;4.67;;;;;;;;;;5061498;28;20208;-83
2023/03/03 13:46:19;;;;;;;5.47;4.93;;;;;;;;;;5087243;28;20208;-83
2023/03/03 13:48:58;;;;;;;5.93;4.80;;;;;;;;;;5073812;28;20642;-81
2023/03/03 13:51:36;;;;;;;4.97;4.47;;;;;;;;;;5073956;28;20201;-80
2023/03/03 13:54:10;;;;;;;4.80;4.40;;;;;;;;;;5086354;28;20204;-80
2023/03/03 13:56:46;;;;;;;8.73;4.60;;;;;;;;;;5060302;28;20300;-80
2023/03/03 13:59:23;;;;;;;7.57;5.17;;;;;;;;;;5086143;28;20207;-78
2023/03/03 14:01:56;;;;;;;7.63;5.70;;;;;;;;;;5073384;28;20205;-78
2023/03/03 14:04:32;;;;;;;5.00;4.60;;;;;;;;;;5073705;28;20238;-79
2023/03/03 14:07:06;;;;;;;7.70;5.00;;;;;;;;;;5087273;28;20232;-78
2023/03/03 14:09:44;;;;;;;5.10;4.07;;;;;;;;;;5085304;28;20291;-78
2023/03/03 14:12:14;;;;;;;5.43;4.83;;;;;;;;;;5075136;28;20713;-79
2023/03/03 14:14:47;;;;;;;5.93;4.53;;;;;;;;;;5085014;28;20201;-80
2023/03/03 14:17:17;;;;;;;6.00;5.40;;;;;;;;;;5073419;28;20212;-81
2023/03/03 14:19:50;;;;;;;6.27;5.33;;;;;;;;;;5073543;28;20262;-88
2023/03/03 14:22:22;;;;;;;6.90;6.20;;;;;;;;;;5073271;28;20197;-80
2023/03/03 14:25:10;;;;;;;6.50;5.47;;;;;;;;;;5073656;28;20320;-80
2023/03/03 14:27:40;;;;;;;5.43;4.90;;;;;;;;;;5060171;28;20229;-79
2023/03/03 14:30:26;;;;;;;6.23;5.57;;;;;;;;;;5088730;28;20291;-80
2023/03/03 14:33:01;;;;;;;6.10;5.33;;;;;;;;;;5093637;28;20208;-79
2023/03/03 14:35:33;;;;;;;5.80;5.10;;;;;;;;;;5066848;28;20200;-79
2023/03/03 14:38:10;;;;;;;7.13;5.93;;;;;;;;;;5079694;28;20213;-80
2023/03/03 14:40:41;;;;;;;7.13;5.10;;;;;;;;;;5083979;28;20215;-79
2023/03/03 14:43:21;;;;;;;7.67;4.40;;;;;;;;;;5084954;28;20251;-80
2023/03/03 14:45:48;;;;;;;8.33;6.50;;;;;;;;;;5084507;28;20291;-80
2023/03/03 14:48:17;;;;;;;7.47;4.73;;;;;;;;;;5072931;28;20213;-81